Time;durP1;ratioP1;P1;durP2;ratioP2;P2;SDS_P1;SDS_P2;PMS_P1;PMS_P2;Temp;Humidity;BMP_temperature;BMP_pressure;BME280_temperature;BME280_humidity;BME280_pressure;Samples;Min_cycle;Max_cycle;Signal;HPM_P1;HPM_P2
2024/01/12 00:00:43;;;;;;;7.63;4.70;;;;;;;4.29;100.00;103646.44;5020985;28;20418;-75
2024/01/12 00:03:08;;;;;;;7.20;5.22;;;;;;;4.29;100.00;103657.97;5020532;28;20037;-75
2024/01/12 00:05:35;;;;;;;7.15;5.13;;;;;;;4.29;100.00;103646.44;5020560;28;20448;-75
2024/01/12 00:08:01;;;;;;;6.50;4.18;;;;;;;4.31;100.00;103647.22;5036611;28;20060;-75
2024/01/12 00:10:26;;;;;;;10.68;4.57;;;;;;;4.33;100.00;103648.03;5020408;28;20067;-75
2024/01/12 00:12:54;;;;;;;7.50;5.35;;;;;;;4.33;100.00;103645.38;5020429;28;20048;-75
2024/01/12 00:15:20;;;;;;;8.38;4.65;;;;;;;4.35;100.00;103644.38;5020369;28;20032;-75
2024/01/12 00:17:45;;;;;;;7.50;4.10;;;;;;;4.32;100.00;103635.66;5020037;28;20095;-75
2024/01/12 00:20:11;;;;;;;7.68;4.72;;;;;;;4.31;100.00;103640.13;5020555;28;20075;-75
2024/01/12 00:22:37;;;;;;;8.43;4.65;;;;;;;4.29;100.00;103633.97;5020489;28;20033;-76
2024/01/12 00:25:03;;;;;;;8.52;4.28;;;;;;;4.26;100.00;103636.78;5037214;28;20430;-75
2024/01/12 00:27:29;;;;;;;8.48;4.20;;;;;;;4.24;100.00;103633.31;5020140;28;20029;-75
2024/01/12 00:29:55;;;;;;;7.82;4.20;;;;;;;4.24;100.00;103633.31;5036507;28;20044;-75
2024/01/12 00:32:20;;;;;;;4.50;3.47;;;;;;;4.22;100.00;103629.84;5020018;28;20041;-75
2024/01/12 00:34:46;;;;;;;5.75;4.53;;;;;;;4.20;100.00;103626.38;5036388;28;20028;-75
2024/01/12 00:37:12;;;;;;;6.20;4.30;;;;;;;4.23;100.00;103620.03;5036306;28;20087;-75
2024/01/12 00:39:37;;;;;;;5.90;4.47;;;;;;;4.23;100.00;103620.91;5052556;28;20063;-75
2024/01/12 00:42:04;;;;;;;6.78;4.50;;;;;;;4.24;100.00;103622.66;5052705;28;20431;-76
2024/01/12 00:44:29;;;;;;;5.32;3.45;;;;;;;4.24;100.00;103621.78;5019500;28;20090;-75
2024/01/12 00:46:55;;;;;;;4.60;3.65;;;;;;;4.26;100.00;103620.81;5020673;28;20044;-75
2024/01/12 00:49:21;;;;;;;5.60;3.58;;;;;;;4.25;100.00;103618.19;5019851;28;20068;-75
2024/01/12 00:51:48;;;;;;;6.97;3.45;;;;;;;4.26;100.00;103619.91;5019725;28;20034;-76
2024/01/12 00:54:15;;;;;;;4.80;3.08;;;;;;;4.25;100.00;103619.03;5019793;28;20037;-76
2024/01/12 00:56:41;;;;;;;4.05;3.45;;;;;;;4.21;100.00;103617.47;5035965;28;20045;-76
2024/01/12 00:59:07;;;;;;;5.47;3.97;;;;;;;4.23;100.00;103618.25;5019573;28;20083;-75
2024/01/12 01:01:33;;;;;;;4.57;3.47;;;;;;;4.26;100.00;103623.47;5019638;28;20028;-75
2024/01/12 01:04:02;;;;;;;5.18;3.85;;;;;;;4.28;100.00;103623.38;5036058;28;20061;-75
2024/01/12 01:06:28;;;;;;;4.55;3.30;;;;;;;4.26;100.00;103618.13;5052064;28;20064;-76
2024/01/12 01:08:54;;;;;;;5.68;3.85;;;;;;;4.23;100.00;103614.72;5036004;28;20033;-76
2024/01/12 01:11:21;;;;;;;7.85;3.15;;;;;;;4.22;100.00;103613.00;5036102;28;20037;-75
2024/01/12 01:13:47;;;;;;;4.30;3.08;;;;;;;4.21;100.00;103612.13;5019537;28;20036;-75
2024/01/12 01:16:12;;;;;;;5.88;3.28;;;;;;;4.18;100.00;103607.81;5035838;28;20037;-75
2024/01/12 01:18:38;;;;;;;7.20;3.75;;;;;;;4.15;100.00;103610.59;5035949;28;20040;-75
2024/01/12 01:21:04;;;;;;;5.40;3.60;;;;;;;4.12;100.00;103607.19;5019528;28;20043;-75
2024/01/12 01:23:30;;;;;;;4.55;3.47;;;;;;;4.10;100.00;103603.69;5003067;28;20032;-75
2024/01/12 01:25:55;;;;;;;6.43;3.50;;;;;;;4.13;100.00;103603.59;5035828;28;20112;-75
2024/01/12 01:28:21;;;;;;;6.43;3.70;;;;;;;4.11;100.00;103602.78;5035762;28;20136;-75
2024/01/12 01:30:47;;;;;;;5.68;3.53;;;;;;;4.11;100.00;103595.66;5020877;28;20040;-75
2024/01/12 01:33:13;;;;;;;6.85;3.97;;;;;;;4.13;100.00;103603.59;5023423;28;20372;-75
2024/01/12 01:35:38;;;;;;;6.65;3.70;;;;;;;4.15;100.00;103602.63;5039313;28;20033;-76
2024/01/12 01:38:05;;;;;;;6.35;3.60;;;;;;;4.15;100.00;103610.59;5023360;28;20053;-76
2024/01/12 01:40:30;;;;;;;7.03;4.43;;;;;;;4.16;100.00;103607.00;5039827;28;20036;-75
2024/01/12 01:42:56;;;;;;;5.80;4.20;;;;;;;4.15;100.00;103607.94;5039717;28;20379;-75
2024/01/12 01:45:21;;;;;;;5.97;3.97;;;;;;;4.12;100.00;103602.72;5023167;28;20483;-76
2024/01/12 01:47:47;;;;;;;6.68;4.00;;;;;;;4.11;100.00;103606.31;5023143;28;20037;-75
2024/01/12 01:50:14;;;;;;;8.60;4.40;;;;;;;4.11;100.00;103601.00;5023038;28;20036;-75
2024/01/12 01:52:43;;;;;;;6.55;3.90;;;;;;;4.13;100.00;103606.28;5023008;28;20065;-75
2024/01/12 01:55:11;;;;;;;6.78;3.90;;;;;;;4.11;100.00;103600.13;5039226;28;20040;-75
2024/01/12 01:57:39;;;;;;;5.53;3.97;;;;;;;4.13;100.00;103592.94;5006578;28;20045;-76
2024/01/12 02:00:05;;;;;;;6.03;3.97;;;;;;;4.09;100.00;103592.19;5023100;28;20086;-75
2024/01/12 02:02:31;;;;;;;6.10;4.03;;;;;;;4.06;100.00;103596.78;5022991;28;20060;-75
2024/01/12 02:04:58;;;;;;;6.95;3.88;;;;;;;4.05;100.00;103590.59;5039429;28;20447;-75
2024/01/12 02:07:23;;;;;;;5.30;4.10;;;;;;;4.02;100.00;103589.84;5022708;28;20037;-75
2024/01/12 02:09:49;;;;;;;8.23;5.43;;;;;;;4.00;100.00;103592.59;5039133;28;20043;-75
2024/01/12 02:12:15;;;;;;;4.53;3.78;;;;;;;4.07;100.00;103591.38;5006332;28;20037;-75
2024/01/12 02:14:41;;;;;;;6.85;4.28;;;;;;;4.12;100.00;103585.88;5022550;28;20460;-75
2024/01/12 02:17:07;;;;;;;6.07;3.72;;;;;;;4.13;100.00;103587.63;5022581;28;20037;-75
2024/01/12 02:19:33;;;;;;;5.97;4.10;;;;;;;4.13;100.00;103582.31;5038811;28;20452;-75
2024/01/12 02:21:58;;;;;;;5.20;3.90;;;;;;;4.12;100.00;103585.88;5022518;28;20033;-75
2024/01/12 02:24:24;;;;;;;5.82;3.97;;;;;;;4.14;100.00;103590.22;5022215;28;20524;-75
2024/01/12 02:26:50;;;;;;;5.13;3.50;;;;;;;4.15;100.00;103586.63;5022453;28;20037;-75
2024/01/12 02:29:15;;;;;;;6.80;3.90;;;;;;;4.16;100.00;103580.38;5022439;28;20060;-75
2024/01/12 02:31:41;;;;;;;8.65;4.05;;;;;;;4.10;100.00;103577.97;5022200;28;20047;-75
2024/01/12 02:34:07;;;;;;;6.13;4.10;;;;;;;4.10;100.00;103579.75;5038679;28;20041;-75
2024/01/12 02:36:32;;;;;;;5.13;3.88;;;;;;;4.07;100.00;103578.06;5022213;28;20025;-75
2024/01/12 02:38:58;;;;;;;7.45;4.28;;;;;;;4.07;100.00;103580.72;5038631;28;20110;-75
2024/01/12 02:41:24;;;;;;;7.20;3.83;;;;;;;4.09;100.00;103581.53;5021994;28;20187;-75
2024/01/12 02:43:49;;;;;;;4.53;3.67;;;;;;;4.07;100.00;103579.88;5022117;28;20033;-75
2024/01/12 02:46:15;;;;;;;6.13;3.97;;;;;;;4.07;100.00;103578.06;5022369;28;20037;-75
2024/01/12 02:48:41;;;;;;;5.55;4.07;;;;;;;4.08;100.00;103579.81;5022001;28;20448;-75
2024/01/12 02:51:07;;;;;;;4.97;3.25;;;;;;;4.09;100.00;103584.19;5022004;28;20040;-75
2024/01/12 02:53:32;;;;;;;5.10;3.45;;;;;;;4.08;100.00;103584.28;5021950;28;20044;-75
2024/01/12 02:55:58;;;;;;;4.53;3.40;;;;;;;4.09;100.00;103578.03;5022166;28;20021;-75
2024/01/12 02:58:24;;;;;;;5.82;3.42;;;;;;;4.10;100.00;103572.66;5021867;28;20045;-75
2024/01/12 03:00:52;;;;;;;5.65;3.88;;;;;;;4.10;100.00;103572.66;5021681;28;20035;-75
2024/01/12 03:03:21;;;;;;;5.10;2.75;;;;;;;4.08;100.00;103573.63;5038499;28;20559;-75
2024/01/12 03:05:48;;;;;;;6.10;3.13;;;;;;;4.10;100.00;103575.31;5021713;28;20083;-75
2024/01/12 03:08:14;;;;;;;6.55;3.03;;;;;;;4.06;100.00;103564.84;5021571;28;20468;-75
2024/01/12 03:10:40;;;;;;;6.80;3.53;;;;;;;4.04;100.00;103572.03;5038178;28;20086;-75
2024/01/12 03:13:06;;;;;;;6.25;3.35;;;;;;;4.01;100.00;103573.00;5021583;28;20036;-75
2024/01/12 03:15:32;;;;;;;5.40;3.17;;;;;;;3.97;100.00;103569.63;5021209;28;20094;-75
2024/01/12 03:17:58;;;;;;;4.97;3.00;;;;;;;4.05;100.00;103563.09;5021794;28;20063;-75
2024/01/12 03:20:24;;;;;;;4.68;2.67;;;;;;;4.06;100.00;103562.19;5021418;28;20115;-75
2024/01/12 03:22:50;;;;;;;3.20;2.85;;;;;;;4.08;100.00;103569.16;5021326;28;20140;-75
2024/01/12 03:25:16;;;;;;;4.65;3.03;;;;;;;4.11;100.00;103571.69;5021313;28;20119;-75
2024/01/12 03:27:41;;;;;;;4.40;2.65;;;;;;;4.12;100.00;103564.56;5021289;28;20450;-75
2024/01/12 03:30:08;;;;;;;5.35;2.90;;;;;;;4.13;100.00;103567.19;5021211;28;20498;-75
2024/01/12 03:32:36;;;;;;;5.00;3.17;;;;;;;4.09;100.00;103565.56;5037318;28;20048;-75
2024/01/12 03:35:03;;;;;;;5.15;3.17;;;;;;;4.09;100.00;103575.34;5038317;28;20029;-75
2024/01/12 03:37:29;;;;;;;4.55;2.75;;;;;;;4.12;100.00;103569.91;5021852;28;20041;-75
2024/01/12 03:39:54;;;;;;;7.03;3.47;;;;;;;4.10;100.00;103562.00;5021012;28;20470;-75
2024/01/12 03:42:20;;;;;;;2.97;2.30;;;;;;;4.10;100.00;103566.44;5021266;28;20065;-75
2024/01/12 03:44:46;;;;;;;4.35;2.95;;;;;;;4.10;100.00;103555.78;5020445;28;20494;-75
2024/01/12 03:47:12;;;;;;;5.75;3.03;;;;;;;4.11;100.00;103562.84;5020915;28;20120;-75
2024/01/12 03:49:37;;;;;;;4.75;2.92;;;;;;;4.11;100.00;103560.19;5020873;28;20040;-75
2024/01/12 03:52:04;;;;;;;6.05;2.90;;;;;;;4.09;100.00;103552.25;5021379;28;20471;-75
2024/01/12 03:54:30;;;;;;;7.10;3.70;;;;;;;4.04;100.00;103556.03;5036468;28;20102;-75
2024/01/12 03:56:55;;;;;;;6.47;4.72;;;;;;;4.01;100.00;103551.72;5020706;28;20471;-75
2024/01/12 03:59:21;;;;;;;13.70;7.68;;;;;;;4.04;100.00;103556.03;5053543;28;20072;-75
2024/01/12 04:01:47;;;;;;;9.05;6.43;;;;;;;4.02;100.00;103539.25;5053212;28;20078;-75
2024/01/12 04:04:13;;;;;;;4.45;3.67;;;;;;;4.07;100.00;103523.97;5020515;28;20029;-75
2024/01/12 04:06:42;;;;;;;5.70;3.42;;;;;;;4.05;100.00;103529.38;5020566;28;20033;-75
2024/01/12 04:09:11;;;;;;;4.40;3.08;;;;;;;4.03;100.00;103527.69;5020502;28;20071;-75
2024/01/12 04:11:37;;;;;;;5.43;3.17;;;;;;;4.01;100.00;103529.56;5053430;28;20055;-75
2024/01/12 04:14:03;;;;;;;5.20;3.40;;;;;;;3.96;100.00;103522.63;5020049;28;20033;-75
2024/01/12 04:16:29;;;;;;;4.95;3.30;;;;;;;3.94;100.00;103523.59;5036414;28;20036;-75
2024/01/12 04:18:55;;;;;;;4.53;3.42;;;;;;;3.93;100.00;103522.75;5036344;28;20130;-75
2024/01/12 04:21:21;;;;;;;5.45;3.33;;;;;;;3.93;100.00;103529.88;5021076;28;20029;-75
2024/01/12 04:23:46;;;;;;;6.30;4.00;;;;;;;3.89;100.00;103531.81;5020211;28;20468;-75
2024/01/12 04:26:12;;;;;;;6.90;3.20;;;;;;;3.86;100.00;103523.94;5020203;28;20037;-75
2024/01/12 04:28:38;;;;;;;5.55;3.20;;;;;;;3.87;100.00;103533.66;5020223;28;20130;-75
2024/01/12 04:31:04;;;;;;;6.43;3.58;;;;;;;3.89;100.00;103541.56;5019858;28;20083;-75
2024/01/12 04:33:31;;;;;;;6.13;3.65;;;;;;;3.89;100.00;103539.78;5019715;28;20037;-75
2024/01/12 04:35:57;;;;;;;4.30;3.58;;;;;;;3.92;100.00;103536.13;5054265;28;20035;-75
2024/01/12 04:38:27;;;;;;;6.28;3.50;;;;;;;3.92;100.00;103537.00;5020024;28;20087;-75
2024/01/12 04:40:54;;;;;;;7.28;3.75;;;;;;;3.92;100.00;103537.00;5036224;28;20033;-75
2024/01/12 04:43:20;;;;;;;6.57;4.13;;;;;;;3.90;100.00;103524.69;5020017;28;20545;-75
2024/01/12 04:45:45;;;;;;;6.45;4.60;;;;;;;3.88;100.00;103524.72;5019938;28;20037;-74
2024/01/12 04:48:11;;;;;;;7.65;4.22;;;;;;;3.89;100.00;103526.50;5019765;28;20361;-75
2024/01/12 04:50:37;;;;;;;6.18;3.92;;;;;;;3.87;100.00;103525.69;5019743;28;20132;-75
2024/01/12 04:53:02;;;;;;;5.10;3.92;;;;;;;3.85;100.00;103534.66;5019709;28;20090;-75
2024/01/12 04:55:28;;;;;;;5.85;3.97;;;;;;;3.83;100.00;103524.06;5019516;28;20095;-75
2024/01/12 04:57:54;;;;;;;5.30;3.80;;;;;;;3.80;100.00;103521.53;5019654;28;20048;-75
2024/01/12 05:00:20;;;;;;;7.32;4.38;;;;;;;3.73;100.00;103512.06;5019413;28;20048;-75
2024/01/12 05:02:46;;;;;;;5.57;4.07;;;;;;;3.71;100.00;103505.97;5018014;28;20395;-75
2024/01/12 05:05:12;;;;;;;5.85;3.83;;;;;;;3.72;100.00;103507.69;5034626;28;20025;-75
2024/01/12 05:07:38;;;;;;;6.03;3.90;;;;;;;3.74;100.00;103506.69;5051943;28;20029;-75
2024/01/12 05:10:05;;;;;;;6.28;3.88;;;;;;;3.79;100.00;103502.97;5018584;28;20043;-75
2024/01/12 05:12:31;;;;;;;6.60;3.55;;;;;;;3.76;100.00;103493.34;5051001;28;20430;-75
2024/01/12 05:14:56;;;;;;;4.80;3.80;;;;;;;3.70;100.00;103491.75;5018913;28;20037;-75
2024/01/12 05:17:23;;;;;;;5.20;3.92;;;;;;;3.70;100.00;103485.59;5019483;28;20089;-75
2024/01/12 05:19:49;;;;;;;6.20;3.85;;;;;;;3.70;100.00;103494.44;5035838;28;20057;-75
2024/01/12 05:22:15;;;;;;;6.63;3.33;;;;;;;3.70;100.00;103493.56;5019443;28;20036;-75
2024/01/12 05:24:40;;;;;;;7.68;3.85;;;;;;;3.68;100.00;103490.13;5019310;28;20036;-75
2024/01/12 05:27:07;;;;;;;7.22;4.80;;;;;;;3.68;100.00;103487.47;5019407;28;20040;-75
2024/01/12 05:29:34;;;;;;;6.63;3.92;;;;;;;3.66;100.00;103481.34;5035891;28;20498;-75
2024/01/12 05:32:00;;;;;;;6.88;3.95;;;;;;;3.70;100.00;103494.44;5003037;28;20399;-75
2024/01/12 05:34:26;;;;;;;6.10;3.47;;;;;;;3.70;100.00;103488.25;5019312;28;20179;-75
2024/01/12 05:36:52;;;;;;;6.78;3.47;;;;;;;3.70;100.00;103480.25;5019380;28;20116;-75
2024/01/12 05:39:18;;;;;;;6.57;3.83;;;;;;;3.71;100.00;103490.00;5019035;28;20468;-75
2024/01/12 05:41:43;;;;;;;6.93;4.25;;;;;;;3.70;100.00;103483.78;5019334;28;20044;-75
2024/01/12 05:44:09;;;;;;;7.55;4.57;;;;;;;3.68;100.00;103482.16;5019756;28;20037;-75
2024/01/12 05:46:35;;;;;;;5.80;3.17;;;;;;;3.69;100.00;103473.22;5019195;28;20455;-75
2024/01/12 05:49:04;;;;;;;6.88;4.72;;;;;;;3.68;100.00;103477.69;5019150;28;20040;-75
2024/01/12 05:51:30;;;;;;;6.72;4.28;;;;;;;3.71;100.00;103472.22;5019616;28;20051;-75
2024/01/12 05:53:56;;;;;;;8.23;5.03;;;;;;;3.71;100.00;103466.91;5035642;28;20037;-75
2024/01/12 05:56:22;;;;;;;6.25;4.32;;;;;;;3.70;100.00;103464.28;5035200;28;20056;-75
2024/01/12 05:58:48;;;;;;;6.10;4.20;;;;;;;3.70;100.00;103467.81;5035223;28;20041;-75
2024/01/12 06:01:14;;;;;;;5.60;4.32;;;;;;;3.65;100.00;103461.84;5019059;28;20041;-75
2024/01/12 06:03:40;;;;;;;8.13;5.00;;;;;;;3.60;100.00;103468.25;5035489;28;20043;-75
2024/01/12 06:06:06;;;;;;;5.32;4.03;;;;;;;3.57;100.00;103466.59;5019059;28;20360;-75
2024/01/12 06:08:31;;;;;;;7.60;5.18;;;;;;;3.57;100.00;103466.59;5019090;28;20033;-74
2024/01/12 06:10:57;;;;;;;8.45;4.90;;;;;;;3.59;100.00;103469.22;5035284;28;20036;-75
2024/01/12 06:13:23;;;;;;;6.47;3.65;;;;;;;3.60;100.00;103468.25;5019059;28;20039;-75
2024/01/12 06:15:49;;;;;;;5.90;3.78;;;;;;;3.57;100.00;103463.94;5035261;28;20017;-75
2024/01/12 06:18:15;;;;;;;5.95;4.20;;;;;;;3.56;100.00;103464.03;5022625;28;20037;-75
2024/01/12 06:20:40;;;;;;;6.95;4.70;;;;;;;3.57;100.00;103463.06;5022593;28;20048;-75
2024/01/12 06:23:06;;;;;;;6.07;4.20;;;;;;;3.53;100.00;103457.88;5022484;28;20040;-75
2024/01/12 06:25:36;;;;;;;6.40;4.10;;;;;;;3.56;100.00;103458.69;5038509;28;20036;-75
2024/01/12 06:28:05;;;;;;;7.05;4.45;;;;;;;3.53;100.00;103465.00;5022905;28;20021;-75
2024/01/12 06:30:31;;;;;;;5.80;4.68;;;;;;;3.47;100.00;103458.16;5038951;28;20517;-75
2024/01/12 06:32:58;;;;;;;4.72;3.60;;;;;;;3.46;100.00;103453.75;5055949;28;20075;-75
2024/01/12 06:35:24;;;;;;;6.20;5.22;;;;;;;3.43;100.00;103453.88;5022142;28;20105;-75
2024/01/12 06:37:50;;;;;;;4.22;2.95;;;;;;;3.46;100.00;103461.72;5022485;28;20524;-75
2024/01/12 06:40:16;;;;;;;5.03;4.10;;;;;;;3.47;100.00;103467.94;5038513;28;20051;-75
2024/01/12 06:42:42;;;;;;;6.30;4.30;;;;;;;3.49;100.00;103461.63;5038410;28;20029;-75
2024/01/12 06:45:10;;;;;;;5.88;4.03;;;;;;;3.51;100.00;103474.84;5021790;28;20043;-75
2024/01/12 06:47:36;;;;;;;5.25;3.38;;;;;;;3.51;100.00;103469.53;5022647;28;20128;-75
2024/01/12 06:50:02;;;;;;;6.40;3.67;;;;;;;3.50;100.00;103465.16;5038454;28;20117;-75
2024/01/12 06:52:32;;;;;;;5.10;3.05;;;;;;;3.48;100.00;103472.31;5055141;28;20406;-75
2024/01/12 06:54:58;;;;;;;4.93;4.18;;;;;;;3.43;100.00;103472.50;5021826;28;20033;-75
2024/01/12 06:57:23;;;;;;;3.58;2.33;;;;;;;3.43;100.00;103474.28;5021958;28;20062;-74
2024/01/12 06:59:49;;;;;;;5.30;3.45;;;;;;;3.46;100.00;103468.84;5021889;28;20047;-75
2024/01/12 07:02:15;;;;;;;4.85;3.22;;;;;;;3.45;100.00;103473.31;5038371;28;20553;-75
2024/01/12 07:05:03;;;;;;;5.30;3.17;;;;;;;3.46;100.00;103476.81;5021756;28;20036;-75
2024/01/12 07:12:12;;;;;;;5.20;3.38;;;;;;;3.35;100.00;103463.97;5013249;28;20034;-75
2024/01/12 07:14:42;;;;;;;4.25;3.67;;;;;;;3.27;100.00;103452.78;5013557;28;20034;-75
2024/01/12 07:17:07;;;;;;;5.93;3.25;;;;;;;3.31;100.00;103457.06;4997286;28;20053;-75
2024/01/12 07:19:33;;;;;;;3.70;3.05;;;;;;;3.32;100.00;103461.44;5001550;28;20162;-75
2024/01/12 07:21:59;;;;;;;4.25;3.53;;;;;;;3.32;100.00;103456.13;5021419;28;20375;-75
2024/01/12 07:24:24;;;;;;;5.75;3.88;;;;;;;3.34;100.00;103453.41;5021347;28;20071;-75
2024/01/12 07:26:50;;;;;;;4.57;3.17;;;;;;;3.32;100.00;103444.63;5037662;28;20037;-75
2024/01/12 07:29:16;;;;;;;4.72;3.38;;;;;;;3.34;100.00;103454.25;5020285;28;20039;-75
2024/01/12 07:31:42;;;;;;;4.07;2.17;;;;;;;3.34;100.00;103446.28;5021095;28;20106;-75
2024/01/12 07:34:08;;;;;;;5.05;3.00;;;;;;;3.33;100.00;103452.50;5037651;28;20471;-74
2024/01/12 07:36:34;;;;;;;5.47;3.33;;;;;;;3.35;100.00;103445.34;5020926;28;20033;-75
2024/01/12 07:38:59;;;;;;;4.43;3.10;;;;;;;3.38;100.00;103437.25;5037511;28;20045;-75
2024/01/12 07:41:26;;;;;;;5.43;2.90;;;;;;;3.36;100.00;103435.56;5021061;28;20162;-75
2024/01/12 07:43:53;;;;;;;5.47;2.50;;;;;;;3.36;100.00;103432.91;5021180;28;20128;-75
2024/01/12 07:46:21;;;;;;;8.35;3.03;;;;;;;3.31;100.00;103441.09;5037557;28;20495;-75
2024/01/12 07:48:51;;;;;;;4.38;3.50;;;;;;;3.30;100.00;103437.56;5037575;28;20041;-75
2024/01/12 07:51:17;;;;;;;8.85;3.25;;;;;;;3.32;100.00;103433.97;5037550;28;20028;-75
2024/01/12 07:53:43;;;;;;;4.70;3.05;;;;;;;3.32;100.00;103426.88;5053925;28;20036;-75
2024/01/12 07:56:10;;;;;;;4.03;2.47;;;;;;;3.33;100.00;103430.38;5037047;28;20044;-75
2024/01/12 07:58:35;;;;;;;5.95;3.20;;;;;;;3.29;100.00;103427.00;5021467;28;20095;-75
2024/01/12 08:01:01;;;;;;;4.63;2.67;;;;;;;3.28;100.00;103433.22;5020788;28;20450;-75
2024/01/12 08:03:27;;;;;;;6.10;3.05;;;;;;;3.27;100.00;103428.84;5037271;28;20071;-75
2024/01/12 08:05:52;;;;;;;3.75;2.42;;;;;;;3.30;100.00;103426.06;5020635;28;20174;-75
2024/01/12 08:08:19;;;;;;;4.32;2.63;;;;;;;3.31;100.00;103425.16;5020572;28;20464;-75
2024/01/12 08:10:51;;;;;;;3.90;2.88;;;;;;;3.25;100.00;103420.91;5036917;28;20064;-75
2024/01/12 08:13:16;;;;;;;7.55;2.72;;;;;;;3.25;100.00;103430.69;5038618;28;20045;-75
2024/01/12 08:15:42;;;;;;;3.60;2.53;;;;;;;3.25;100.00;103428.03;5053189;28;20383;-75
2024/01/12 08:18:08;;;;;;;3.95;2.80;;;;;;;3.26;100.00;103427.13;5036785;28;20048;-75
2024/01/12 08:20:34;;;;;;;5.65;2.85;;;;;;;3.26;100.00;103427.13;5036735;28;20045;-75
2024/01/12 08:23:00;;;;;;;3.90;2.80;;;;;;;3.31;100.00;103433.13;5020047;28;20025;-75
2024/01/12 08:25:25;;;;;;;3.90;3.03;;;;;;;3.34;100.00;103430.34;5020258;28;20408;-75
2024/01/12 08:27:51;;;;;;;4.63;2.80;;;;;;;3.37;100.00;103426.69;5053000;28;20032;-74
2024/01/12 08:30:17;;;;;;;7.35;2.85;;;;;;;3.36;100.00;103428.47;5020140;28;20552;-75
2024/01/12 08:32:42;;;;;;;5.05;2.83;;;;;;;3.36;100.00;103425.81;5020035;28;20036;-75
2024/01/12 08:35:08;;;;;;;4.07;2.72;;;;;;;3.38;100.00;103431.06;5019901;28;20483;-74
2024/01/12 08:37:34;;;;;;;3.97;2.42;;;;;;;3.35;100.00;103431.19;5035905;28;20021;-75
2024/01/12 08:39:59;;;;;;;3.63;2.30;;;;;;;3.35;100.00;103440.03;5019695;28;20032;-74
2024/01/12 08:42:25;;;;;;;7.03;2.53;;;;;;;3.34;100.00;103435.66;5019758;28;20036;-75
2024/01/12 08:44:51;;;;;;;3.70;2.75;;;;;;;3.30;100.00;103426.06;5036008;28;20087;-75
2024/01/12 08:47:20;;;;;;;5.13;2.95;;;;;;;3.30;100.00;103437.56;5036673;28;20116;-75
2024/01/12 08:49:46;;;;;;;5.03;2.20;;;;;;;3.32;100.00;103418.88;5020136;28;20036;-75
2024/01/12 08:52:12;;;;;;;4.68;2.22;;;;;;;3.32;100.00;103432.19;5019727;28;20040;-75
2024/01/12 08:54:38;;;;;;;4.97;2.45;;;;;;;3.32;100.00;103423.34;5052446;28;20033;-75
2024/01/12 08:57:03;;;;;;;3.88;2.28;;;;;;;3.30;100.00;103431.38;5036042;28;20036;-75
2024/01/12 08:59:29;;;;;;;4.35;2.50;;;;;;;3.31;100.00;103435.78;5019567;28;20506;-74
2024/01/12 09:01:56;;;;;;;3.55;2.58;;;;;;;3.30;100.00;103434.03;5019573;28;20095;-75
2024/01/12 09:04:23;;;;;;;4.57;3.08;;;;;;;3.32;100.00;103429.53;5020151;28;20041;-75
2024/01/12 09:06:48;;;;;;;3.83;2.67;;;;;;;3.35;100.00;103434.72;5019611;28;20036;-75
2024/01/12 09:09:14;;;;;;;5.13;2.58;;;;;;;3.36;100.00;103424.94;5035547;28;20029;-75
2024/01/12 09:11:40;;;;;;;3.67;2.45;;;;;;;3.36;100.00;103431.13;5035927;28;20170;-75
2024/01/12 09:14:05;;;;;;;6.25;2.70;;;;;;;3.37;100.00;103430.19;5019741;28;20048;-74
2024/01/12 09:17:04;;;;;;;3.80;2.60;;;;;;;3.41;100.00;103438.91;5018879;28;20036;-75
2024/01/12 09:19:29;;;;;;;4.85;2.65;;;;;;;3.37;100.00;103435.53;5019541;28;20123;-75
2024/01/12 09:21:55;;;;;;;6.30;3.60;;;;;;;3.39;100.00;103435.47;5019759;28;20060;-75
2024/01/12 09:24:21;;;;;;;3.15;2.63;;;;;;;3.45;100.00;103441.38;5035481;28;20041;-75
2024/01/12 09:26:46;;;;;;;5.70;2.83;;;;;;;3.47;100.00;103439.53;5019922;28;20033;-75
2024/01/12 09:29:12;;;;;;;6.80;2.83;;;;;;;3.47;100.00;103442.19;5019299;28;20502;-75
2024/01/12 09:31:38;;;;;;;4.25;2.83;;;;;;;3.48;100.00;103435.94;5018666;28;20475;-76
2024/01/12 09:34:04;;;;;;;4.25;2.78;;;;;;;3.47;100.00;103439.53;5036095;28;20060;-76
2024/01/12 09:36:30;;;;;;;4.32;2.35;;;;;;;3.48;100.00;103432.41;5052109;28;20361;-76
2024/01/12 09:38:56;;;;;;;4.93;3.78;;;;;;;3.49;100.00;103437.69;5019291;28;20123;-76
2024/01/12 09:41:30;;;;;;;4.28;2.90;;;;;;;3.52;100.00;103436.69;5019316;28;20045;-76
2024/01/12 09:43:58;;;;;;;6.75;3.00;;;;;;;3.51;100.00;103430.47;5019364;28;20037;-76
2024/01/12 09:46:28;;;;;;;4.88;3.53;;;;;;;3.48;100.00;103429.75;5035607;28;20045;-76
2024/01/12 09:48:54;;;;;;;5.28;3.58;;;;;;;3.49;100.00;103428.81;5035647;28;20049;-76
2024/01/12 09:51:20;;;;;;;5.07;3.05;;;;;;;3.52;100.00;103420.72;5020323;28;20044;-76
2024/01/12 09:53:46;;;;;;;6.25;3.35;;;;;;;3.51;100.00;103417.19;5023119;28;20125;-76
2024/01/12 09:56:12;;;;;;;4.22;3.25;;;;;;;3.49;100.00;103421.72;5022790;28;20116;-76
2024/01/12 09:58:39;;;;;;;6.90;4.03;;;;;;;3.48;100.00;103430.59;5039337;28;20036;-76
2024/01/12 10:01:05;;;;;;;6.05;3.35;;;;;;;3.45;100.00;103428.09;5022897;28;20468;-76
2024/01/12 10:03:32;;;;;;;6.68;3.70;;;;;;;3.50;100.00;103422.59;5039981;28;20476;-76
2024/01/12 10:05:57;;;;;;;6.85;3.83;;;;;;;3.52;100.00;103426.91;5022881;28;20091;-76
2024/01/12 10:08:34;;;;;;;6.50;3.58;;;;;;;3.52;100.00;103416.25;5039216;28;20037;-76
2024/01/12 10:11:00;;;;;;;5.97;3.17;;;;;;;3.55;100.00;103425.91;5055635;28;20033;-76
2024/01/12 10:13:26;;;;;;;4.85;3.15;;;;;;;3.55;100.00;103425.03;5022673;28;20044;-76
2024/01/12 10:15:52;;;;;;;6.43;3.58;;;;;;;3.56;100.00;103432.09;5038833;28;20033;-76
2024/01/12 10:18:17;;;;;;;5.70;4.05;;;;;;;3.55;100.00;103423.25;5022350;28;20037;-76
2024/01/12 10:20:43;;;;;;;5.25;3.45;;;;;;;3.59;100.00;103430.16;5022568;28;20065;-77
2024/01/12 10:23:09;;;;;;;4.68;3.58;;;;;;;3.59;100.00;103426.63;5022544;28;20091;-76
2024/01/12 10:25:35;;;;;;;4.40;3.45;;;;;;;3.61;100.00;103430.09;5022729;28;20040;-76
2024/01/12 10:28:01;;;;;;;6.82;4.25;;;;;;;3.60;100.00;103429.25;5022461;28;20063;-76
2024/01/12 10:30:29;;;;;;;8.00;3.80;;;;;;;3.66;100.00;103428.13;5022237;28;20040;-76
2024/01/12 10:32:55;;;;;;;4.97;3.30;;;;;;;3.68;100.00;103434.25;5055270;28;20545;-76
2024/01/12 10:35:20;;;;;;;8.18;4.30;;;;;;;3.66;100.00;103428.97;5038609;28;20033;-76
2024/01/12 10:37:47;;;;;;;5.35;3.67;;;;;;;3.65;100.00;103437.00;5023133;28;20033;-76
2024/01/12 10:40:16;;;;;;;5.75;3.92;;;;;;;3.65;100.00;103437.00;5038588;28;20139;-76
2024/01/12 10:42:55;;;;;;;6.38;3.90;;;;;;;3.66;100.00;103425.47;5022171;28;20029;-76
2024/01/12 10:45:21;;;;;;;4.72;3.22;;;;;;;3.70;100.00;103429.69;5037768;28;20039;-76
2024/01/12 10:48:13;;;;;;;4.90;3.75;;;;;;;3.69;100.00;103420.00;5021576;28;20154;-76
2024/01/12 10:50:43;;;;;;;5.53;3.80;;;;;;;3.66;100.00;103426.31;5019546;28;20076;-76
2024/01/12 10:53:21;;;;;;;5.78;4.55;;;;;;;3.66;100.00;103418.34;5021515;28;20479;-77
2024/01/12 10:55:56;;;;;;;6.55;5.00;;;;;;;3.65;100.00;103427.25;5054274;28;20037;-76
2024/01/12 10:58:21;;;;;;;5.68;3.67;;;;;;;3.71;100.00;103426.13;5055090;28;20033;-76
2024/01/12 11:00:48;;;;;;;5.60;3.80;;;;;;;3.72;100.00;103422.53;5021817;28;20107;-76
2024/01/12 11:03:15;;;;;;;6.93;4.38;;;;;;;3.75;100.00;103427.72;5021626;28;20471;-76
2024/01/12 11:05:43;;;;;;;8.90;6.63;;;;;;;3.74;100.00;103421.53;5021793;28;20238;-76
2024/01/12 11:08:10;;;;;;;8.07;4.32;;;;;;;3.74;100.00;103412.69;5021694;28;20045;-76
2024/01/12 11:10:39;;;;;;;5.15;4.55;;;;;;;3.67;100.00;103416.53;5038031;28;20025;-76
2024/01/12 11:13:05;;;;;;;5.60;4.70;;;;;;;3.72;100.00;103411.88;5054462;28;20479;-76
2024/01/12 11:15:31;;;;;;;5.18;3.83;;;;;;;3.78;100.00;103406.28;5021381;28;20036;-76
2024/01/12 11:17:56;;;;;;;8.13;5.55;;;;;;;3.81;100.00;103405.28;5022086;28;20043;-76
2024/01/12 11:20:22;;;;;;;7.75;3.85;;;;;;;3.77;100.00;103401.91;5037913;28;20529;-76
2024/01/12 11:22:49;;;;;;;6.85;4.47;;;;;;;3.78;100.00;103398.31;5038043;28;20056;-76
2024/01/12 11:25:17;;;;;;;7.70;4.55;;;;;;;3.78;100.00;103402.75;5037715;28;20467;-77